Airfield :
LOGIN :

Register | Disclaimer

   EN    FR    IT 

 










Legend :    VFR   Marginal VFR   IFR   Intensive IFR   Very Intensive IFR
Visi :
Ceiling :
>= 8 km
>= 3000ft
5 to 8 km
1000 to 3000 ft
1500m to 5 km
500 to 1000 ft
800 to 1500m
200 to 500 ft
< 800m
< 200 ft
Symbols :   Thunderstorms  Fog  Heavy snow  Heavy precipitations  Wind > 20 kt
SIGMETs :     Misc.  Thunderstorms  Icing  Turbulence  Mountain Waves  Volcanic Ashes






- Airport Elevation : 274 ft
- IATA code : PUY


LDPL - Pula

CURRENT METAR :
  • 220030Z 07016KT CAVOK 10/M01 Q1014

EXPIRED METARs :
  • 220000Z 08017KT CAVOK 10/M01 Q1014
  • 212330Z 07015KT CAVOK 10/M01 Q1014
  • 212300Z 05009KT CAVOK 07/00 Q1014
  • 212230Z 05008KT CAVOK 06/01 Q1014
  • 212200Z 04005KT CAVOK 05/01 Q1015
  • 212130Z 06004KT 030V100 CAVOK 05/01 Q1014 BECMG 06015KT
  • 212100Z 05005KT 030V090 CAVOK 05/01 Q1014 NOSIG
  • 212030Z 05005KT CAVOK 05/01 Q1014 NOSIG
  • 212000Z 07004KT CAVOK 06/01 Q1014 NOSIG

TAF TAF LDPL
Valid from the 22 at 00:00 until the 23 at 00:00 UTC


212325Z 2200/2300 04006KT 9999 FEW050 TX14/2212Z TN05/2202Z
BECMG 2200/2202 06018KT
PROB40
TEMPO 2204/2300 06018G28KT
PROB40
TEMPO 2214/2220 VRB10KT 3000 TSRA SCT015CB BKN025
PROB40 2216/2218 12010KT



MET'MAP, your aeronautical weather chart ! - Copyright ORBIFLY December 2007 - Disclaimer

ORBIFLY MET'MAP TEAM :

Programming & Development : Alexandra Zaïnal
Original concept : Baudouin d'Aumeries
Technical & hardware support : Manuel Goepfert
Assistance : Marc-Olivier Méhu




SOURCES & CREDITS :

   NOAA